createdAt,value
2023-10-16T00:04:21.570Z,70918.97
2023-10-16T00:09:26.912Z,70918.97
2023-10-16T00:14:32.113Z,70918.97
2023-10-16T00:19:34.406Z,70918.97
2023-10-16T00:24:38.459Z,70918.97
2023-10-16T00:29:42.747Z,70918.97
2023-10-16T00:34:45.887Z,70918.97
2023-10-16T00:39:50.275Z,70918.97
2023-10-16T00:44:57.122Z,70918.97
2023-10-16T00:50:03.775Z,70918.97
2023-10-16T00:55:12.209Z,70918.97
2023-10-16T01:00:15.146Z,70918.97
2023-10-16T01:05:24.836Z,70918.97
2023-10-16T01:10:28.294Z,70918.97
2023-10-16T01:15:30.407Z,70918.97
2023-10-16T01:20:32.451Z,70918.97
2023-10-16T01:25:35.799Z,70918.97
2023-10-16T01:44:32.997Z,70918.97
2023-10-16T01:49:34.967Z,70918.97
2023-10-16T01:54:39.238Z,70918.97
2023-10-16T01:59:44.337Z,70918.97
2023-10-16T02:04:46.525Z,70918.97
2023-10-16T02:09:49.006Z,70918.97
2023-10-16T02:14:52.365Z,70918.97
2023-10-16T02:19:54.364Z,70918.97
2023-10-16T02:31:53.792Z,70918.97
2023-10-16T02:36:55.958Z,70918.97
2023-10-16T02:42:00.662Z,70918.97
2023-10-16T02:47:06.676Z,70918.97
2023-10-16T02:52:08.723Z,70918.97
2023-10-16T02:57:11.540Z,70918.97
2023-10-16T03:02:24.141Z,70918.97
2023-10-16T03:07:26.454Z,70918.97
2023-10-16T03:12:28.640Z,70918.97
2023-10-16T03:17:32.088Z,70918.97
2023-10-16T03:22:34.212Z,70918.97
2023-10-16T03:27:36.265Z,70918.97
2023-10-16T03:32:39.674Z,70918.97
2023-10-16T03:37:41.699Z,70918.97
2023-10-16T03:42:45.230Z,70918.97
2023-10-16T03:47:52.847Z,70918.97
2023-10-16T03:52:57.857Z,70918.97
2023-10-16T03:58:00.108Z,70918.97
2023-10-16T04:03:08.282Z,70918.97
2023-10-16T04:08:11.740Z,70918.97
2023-10-16T04:13:15.565Z,70918.97
2023-10-16T04:18:28.384Z,70918.97
2023-10-16T04:23:46.652Z,70918.97
2023-10-16T04:29:07.265Z,70918.97
2023-10-16T04:34:37.008Z,70918.97
2023-10-16T04:39:57.692Z,70918.97
2023-10-16T04:45:18.172Z,70918.97
2023-10-16T04:51:08.314Z,70918.97
2023-10-16T04:56:18.130Z,70918.97
2023-10-16T05:01:55.442Z,70918.97
2023-10-16T05:07:07.866Z,70918.97
2023-10-16T05:12:28.501Z,70918.97
2023-10-16T05:17:30.542Z,70918.97
2023-10-16T05:22:48.952Z,70918.97
2023-10-16T05:28:09.639Z,70918.97
2023-10-16T05:33:30.067Z,70918.97
2023-10-16T05:38:52.300Z,70918.97
2023-10-16T05:44:13.622Z,70918.97
2023-10-16T05:49:34.594Z,70918.97
2023-10-16T05:54:56.723Z,70918.97
2023-10-16T06:00:17.771Z,70918.97
2023-10-16T06:05:38.680Z,70918.97
2023-10-16T06:11:02.261Z,70918.97
2023-10-16T06:16:05.032Z,70918.97
2023-10-16T06:21:07.319Z,70918.97
2023-10-16T06:26:10.998Z,70918.97
2023-10-16T06:31:14.534Z,70918.97
2023-10-16T06:36:19.070Z,70918.97
2023-10-16T06:41:23.544Z,70918.97
2023-10-16T06:46:26.418Z,70918.97
2023-10-16T06:51:32.137Z,70918.97
2023-10-16T06:56:36.401Z,70918.97
2023-10-16T07:01:38.854Z,70918.97
2023-10-16T07:06:43.375Z,70918.97
2023-10-16T07:11:46.811Z,70918.97
2023-10-16T07:16:49.592Z,70918.97
2023-10-16T07:21:51.686Z,70918.97
2023-10-16T07:26:55.035Z,70918.97
2023-10-16T07:31:57.040Z,70918.97
2023-10-16T07:36:59.544Z,70918.97
2023-10-16T07:42:03.571Z,70918.97
2023-10-16T07:47:07.306Z,70918.97
2023-10-16T07:52:09.446Z,70918.97
2023-10-16T07:57:12.805Z,70918.97
2023-10-16T08:02:19.217Z,70918.97
2023-10-16T08:07:41.232Z,70918.97
2023-10-16T08:12:44.500Z,70918.97
2023-10-16T08:17:47.100Z,70918.97
2023-10-16T08:22:51.572Z,70918.97
2023-10-16T08:27:58.477Z,70918.97
2023-10-16T08:33:10.896Z,70918.97
2023-10-16T08:38:15.761Z,70918.97
2023-10-16T08:43:19.344Z,70918.97
2023-10-16T08:48:23.120Z,70918.97
2023-10-16T08:53:35.218Z,70918.97
2023-10-16T08:58:45.578Z,70918.97
2023-10-16T09:03:52.133Z,70918.97
2023-10-16T09:08:56.141Z,70918.97
2023-10-16T09:14:00.969Z,70918.97
2023-10-16T09:19:07.949Z,70918.97
2023-10-16T09:24:12.948Z,70918.97
2023-10-16T09:29:16.402Z,70918.97
2023-10-16T09:34:21.600Z,70918.97
2023-10-16T09:39:31.342Z,70918.97
2023-10-16T09:44:40.707Z,70918.97
2023-10-16T09:49:43.603Z,70918.97
2023-10-16T09:54:46.957Z,70918.97
2023-10-16T10:00:01.751Z,70918.97
2023-10-16T10:05:10.922Z,70918.97
2023-10-16T10:10:31.465Z,70918.97
2023-10-16T10:15:37.333Z,70918.97
2023-10-16T10:20:41.858Z,70918.97
2023-10-16T10:25:46.321Z,70918.97
2023-10-16T10:30:50.838Z,70918.97
2023-10-16T10:36:35.570Z,70918.97
2023-10-16T10:41:46.816Z,70918.97
2023-10-16T10:46:54.706Z,70918.97
2023-10-16T10:51:56.965Z,70918.97
2023-10-16T10:57:08.691Z,70918.97
2023-10-16T11:02:19.918Z,70918.97
2023-10-16T11:07:29.747Z,70918.97
2023-10-16T11:12:31.900Z,70918.97
2023-10-16T11:17:37.057Z,70918.97
2023-10-16T11:22:47.972Z,70918.97
2023-10-16T11:27:54.796Z,70918.97
2023-10-16T11:32:59.128Z,70918.97
2023-10-16T11:38:05.407Z,70918.97
2023-10-16T11:43:15.350Z,70918.97
2023-10-16T11:48:24.680Z,70918.97
2023-10-16T11:53:29.626Z,70918.97
2023-10-16T11:58:32.441Z,70918.97
2023-10-16T12:03:38.822Z,70918.97
2023-10-16T12:08:45.825Z,70918.97
2023-10-16T12:13:48.241Z,70918.97
2023-10-16T12:18:52.949Z,70918.97
2023-10-16T12:23:55.055Z,70918.97
2023-10-16T12:28:58.290Z,70918.97
2023-10-16T12:34:01.764Z,70918.97
2023-10-16T12:39:14.416Z,70918.97
2023-10-16T12:44:18.210Z,70918.97
2023-10-16T12:49:24.597Z,70918.97
2023-10-16T12:54:26.968Z,70918.97
2023-10-16T12:59:29.421Z,70918.97
2023-10-16T13:04:34.703Z,70918.97
2023-10-16T13:09:37.052Z,70918.97
2023-10-16T13:14:39.148Z,70918.97
2023-10-16T13:19:42.501Z,70918.97
2023-10-16T13:24:44.576Z,70918.97
2023-10-16T13:29:46.925Z,70918.97
2023-10-16T13:34:51.811Z,70918.97
2023-10-16T13:39:54.042Z,70918.97
2023-10-16T13:44:56.097Z,70918.97
2023-10-16T13:49:59.479Z,70918.97
2023-10-16T13:55:01.505Z,70918.97
2023-10-16T14:00:05.070Z,70918.97
2023-10-16T14:05:08.804Z,70918.97
2023-10-16T14:10:14.554Z,70918.97
2023-10-16T14:15:20.919Z,70918.97
2023-10-16T14:20:36.935Z,70918.97
2023-10-16T14:25:59.006Z,70918.97
2023-10-16T14:31:02.863Z,70918.97
2023-10-16T14:36:08.501Z,70918.97
2023-10-16T14:41:16.591Z,70918.97
2023-10-16T14:46:18.851Z,70918.97
2023-10-16T14:51:23.316Z,70918.97
2023-10-16T14:56:26.347Z,70918.97
2023-10-16T15:01:28.944Z,70918.97
2023-10-16T15:06:33.019Z,70918.97
2023-10-16T15:11:36.256Z,70918.97
2023-10-16T15:16:38.379Z,70918.97
2023-10-16T15:21:41.984Z,70918.97
2023-10-16T15:26:44.108Z,70918.97
2023-10-16T15:31:47.153Z,70918.97
2023-10-16T15:36:51.022Z,70918.97
2023-10-16T15:41:53.265Z,70918.97
2023-10-16T15:46:55.496Z,70918.97
2023-10-16T15:51:59.013Z,70918.97
2023-10-16T15:57:01.217Z,70918.97
2023-10-16T16:02:03.328Z,70918.97
2023-10-16T16:07:10.090Z,70918.97
2023-10-16T16:12:15.222Z,70918.97
2023-10-16T16:17:17.362Z,70918.97
2023-10-16T16:22:20.867Z,70918.97
2023-10-16T16:27:23.166Z,70918.97
2023-10-16T16:32:26.607Z,70918.97
2023-10-16T16:37:30.228Z,70918.97
2023-10-16T16:42:32.248Z,70918.97
2023-10-16T16:47:34.274Z,70918.97
2023-10-16T16:52:37.626Z,70918.97
2023-10-16T16:57:40.470Z,70918.97
2023-10-16T17:02:42.751Z,70918.97
2023-10-16T17:07:46.348Z,70918.97
2023-10-16T17:12:48.688Z,70918.97
2023-10-16T17:17:52.810Z,70918.97
2023-10-16T17:23:06.055Z,70918.97
2023-10-16T17:28:08.641Z,70918.97
2023-10-16T17:33:11.864Z,70918.97
2023-10-16T17:38:15.586Z,70918.97
2023-10-16T17:43:19.919Z,70918.97
2023-10-16T17:48:22.171Z,70918.97
2023-10-16T17:53:26.469Z,70918.97
2023-10-16T17:58:28.762Z,70918.97
2023-10-16T18:03:32.824Z,70918.97
2023-10-16T18:08:36.480Z,58235.91
2023-10-16T18:13:41.937Z,58236.28
2023-10-16T18:18:43.987Z,58236.44
2023-10-16T18:23:47.418Z,58236.28
2023-10-16T18:28:49.460Z,58236.16
2023-10-16T18:33:53.462Z,58236.28
2023-10-16T18:38:56.941Z,58236.16
2023-10-16T18:43:58.953Z,58236.44
2023-10-16T18:49:01.128Z,58236.28
2023-10-16T18:54:05.062Z,58236.44
2023-10-16T18:59:07.925Z,58236.44
2023-10-16T19:04:09.920Z,58236.56
2023-10-16T19:09:13.483Z,58236.44
2023-10-16T19:14:15.696Z,58236.44
2023-10-16T19:19:17.771Z,58236.44
2023-10-16T19:24:21.283Z,58236.28
2023-10-16T19:29:23.351Z,58236.28
2023-10-16T19:34:25.676Z,58236.16
2023-10-16T19:39:30.145Z,58236.16
2023-10-16T19:44:32.241Z,58236.03
2023-10-16T19:49:34.313Z,58235.78
2023-10-16T19:54:39.172Z,58235.63
2023-10-16T19:59:41.192Z,58235.50
2023-10-16T20:04:43.293Z,58235.38
2023-10-16T20:09:46.972Z,58235.25
2023-10-16T20:14:50.125Z,58235.25
2023-10-16T20:19:52.800Z,58234.97
2023-10-16T20:24:56.429Z,58234.84
2023-10-16T20:29:59.114Z,58234.72
2023-10-16T20:35:01.797Z,58234.84
2023-10-16T20:40:08.365Z,58234.97
2023-10-16T20:45:14.450Z,58234.84
2023-10-16T20:50:19.628Z,58234.97
2023-10-16T20:55:23.822Z,58234.47
2023-10-16T21:00:29.149Z,58234.72
2023-10-16T21:05:33.822Z,58234.47
2023-10-16T21:10:37.635Z,58234.19
2023-10-16T21:15:42.706Z,58234.19
2023-10-16T21:20:44.783Z,58234.19
2023-10-16T21:25:48.192Z,58234.19
2023-10-16T21:30:53.935Z,58234.06
2023-10-16T21:36:02.666Z,58234.06
2023-10-16T21:41:06.545Z,58233.94
2023-10-16T21:46:08.659Z,58233.53
2023-10-16T21:51:10.741Z,58233.28
2023-10-16T21:56:14.110Z,58233.00
2023-10-16T22:01:17.750Z,58232.75
2023-10-16T22:06:19.993Z,58232.63
2023-10-16T22:11:23.360Z,58232.22
2023-10-16T22:16:27.002Z,58231.84
2023-10-16T22:21:31.497Z,58231.69
2023-10-16T22:26:36.364Z,58231.69
2023-10-16T22:31:38.971Z,58231.84
2023-10-16T22:36:41.257Z,58231.97
2023-10-16T22:41:44.654Z,58231.69
2023-10-16T22:46:51.097Z,58231.56
2023-10-16T22:51:54.226Z,58231.84
2023-10-16T22:56:57.632Z,58231.97
2023-10-16T23:01:59.732Z,58231.84
2023-10-16T23:07:06.798Z,58231.97
2023-10-16T23:12:10.628Z,58231.97
2023-10-16T23:17:19.179Z,58231.84
2023-10-16T23:22:21.606Z,58231.84
2023-10-16T23:27:24.993Z,58231.84
2023-10-16T23:32:27.028Z,58231.31
2023-10-16T23:37:35.171Z,58231.19
2023-10-16T23:42:38.526Z,58231.03
2023-10-16T23:47:45.832Z,58230.91
2023-10-16T23:53:07.910Z,58230.66
2023-10-16T23:58:14.233Z,58230.38
